createdAt,value
2023-05-01T00:01:11.977Z,25.42
2023-05-01T00:03:39.156Z,28.73
2023-05-01T00:06:06.300Z,28.02
2023-05-01T00:08:33.451Z,31.02
2023-05-01T00:11:06.006Z,31.55
2023-05-01T00:16:01.013Z,26.80
2023-05-01T00:18:30.397Z,24.85
2023-05-01T00:20:57.587Z,34.05
2023-05-01T00:23:24.619Z,24.38
2023-05-01T00:25:51.727Z,26.13
2023-05-01T00:28:19.625Z,23.60
2023-05-01T00:30:47.458Z,25.80
2023-05-01T00:33:17.438Z,24.45
2023-05-01T00:35:45.438Z,27.90
2023-05-01T00:38:15.955Z,27.58
2023-05-01T00:40:47.351Z,22.27
2023-05-01T00:43:14.610Z,24.65
2023-05-01T00:45:46.217Z,24.70
2023-05-01T00:48:14.935Z,25.73
2023-05-01T00:50:44.626Z,22.70
2023-05-01T00:53:12.502Z,22.70
2023-05-01T00:55:42.921Z,23.48
2023-05-01T00:58:14.210Z,28.38
2023-05-01T01:00:41.518Z,25.50
2023-05-01T01:03:09.011Z,28.20
2023-05-01T01:06:14.094Z,26.27
2023-05-01T01:09:10.200Z,24.27
2023-05-01T01:11:45.611Z,24.00
2023-05-01T01:14:25.044Z,28.13
2023-05-01T01:17:04.478Z,24.23
2023-05-01T01:20:09.076Z,27.65
2023-05-01T01:22:41.307Z,24.33
2023-05-01T01:25:41.286Z,28.80
2023-05-01T01:28:57.147Z,25.67
2023-05-01T01:31:41.656Z,25.27
2023-05-01T01:34:28.333Z,24.88
2023-05-01T01:37:38.719Z,27.20
2023-05-01T01:40:13.048Z,29.23
2023-05-01T01:43:02.503Z,31.55
2023-05-01T01:45:43.831Z,29.08
2023-05-01T01:48:15.808Z,29.75
2023-05-01T01:50:46.592Z,36.35
2023-05-01T01:53:19.463Z,33.50
2023-05-01T01:55:48.997Z,30.42
2023-05-01T01:58:18.264Z,30.67
2023-05-01T02:00:46.404Z,27.67
2023-05-01T02:03:15.002Z,28.98
2023-05-01T02:05:43.603Z,29.85
2023-05-01T02:08:13.965Z,28.25
2023-05-01T02:10:44.130Z,37.97
2023-05-01T02:13:13.512Z,55.70
2023-05-01T02:15:41.355Z,38.70
2023-05-01T02:18:09.584Z,36.15
2023-05-01T02:20:38.089Z,32.38
2023-05-01T02:23:07.861Z,33.28
2023-05-01T02:25:40.464Z,32.72
2023-05-01T02:28:16.071Z,28.30
2023-05-01T02:30:43.490Z,29.25
2023-05-01T02:33:11.134Z,29.67
2023-05-01T02:35:44.415Z,30.02
2023-05-01T02:38:13.023Z,33.40
2023-05-01T02:40:46.870Z,32.63
2023-05-01T02:43:20.029Z,29.75
2023-05-01T02:45:51.563Z,34.80
2023-05-01T02:48:29.724Z,36.75
2023-05-01T02:50:58.474Z,35.47
2023-05-01T02:53:25.825Z,30.27
2023-05-01T02:55:58.558Z,31.23
2023-05-01T02:58:25.971Z,24.13
2023-05-01T03:00:53.016Z,33.58
2023-05-01T03:03:20.676Z,32.33
2023-05-01T03:05:48.208Z,28.90
2023-05-01T03:08:16.049Z,29.45
2023-05-01T03:10:43.784Z,31.05
2023-05-01T03:13:11.553Z,30.05
2023-05-01T03:15:39.181Z,27.33
2023-05-01T03:18:06.630Z,32.70
2023-05-01T03:20:34.425Z,34.20
2023-05-01T03:23:02.656Z,30.13
2023-05-01T03:25:30.406Z,28.60
2023-05-01T03:27:57.501Z,32.33
2023-05-01T03:30:24.849Z,26.73
2023-05-01T03:32:55.432Z,25.58
2023-05-01T03:35:29.334Z,28.02
2023-05-01T03:37:56.949Z,34.28
2023-05-01T03:41:05.143Z,26.60
2023-05-01T03:43:48.068Z,34.13
2023-05-01T03:46:41.628Z,31.63
2023-05-01T03:49:13.927Z,29.27
2023-05-01T03:51:46.559Z,30.20
2023-05-01T03:54:14.089Z,27.13
2023-05-01T03:57:07.344Z,31.80
2023-05-01T03:59:35.452Z,26.67
2023-05-01T04:02:03.396Z,30.40
2023-05-01T04:04:33.255Z,23.70
2023-05-01T04:07:00.993Z,26.35
2023-05-01T04:09:33.013Z,30.02
2023-05-01T04:12:00.016Z,27.20
2023-05-01T04:14:27.360Z,33.03
2023-05-01T04:16:54.660Z,29.02
2023-05-01T04:19:21.700Z,31.42
2023-05-01T04:21:53.008Z,29.63
2023-05-01T04:24:20.139Z,29.25
2023-05-01T04:26:47.806Z,32.15
2023-05-01T04:29:14.845Z,31.13
2023-05-01T04:31:43.207Z,28.38
2023-05-01T04:34:10.579Z,28.10
2023-05-01T04:36:38.403Z,33.55
2023-05-01T04:39:05.520Z,30.50
2023-05-01T04:41:33.471Z,33.92
2023-05-01T04:44:01.192Z,27.88
2023-05-01T04:46:28.417Z,36.08
2023-05-01T04:48:55.537Z,36.58
2023-05-01T04:51:22.612Z,36.00
2023-05-01T04:53:52.311Z,36.08
2023-05-01T04:56:26.320Z,36.80
2023-05-01T04:58:57.729Z,37.22
2023-05-01T05:01:26.965Z,35.95
2023-05-01T05:03:55.513Z,37.22
2023-05-01T05:06:23.671Z,41.75
2023-05-01T05:08:52.075Z,38.88
2023-05-01T05:11:20.084Z,35.58
2023-05-01T05:13:57.507Z,42.85
2023-05-01T05:16:24.869Z,44.88
2023-05-01T05:18:55.629Z,46.45
2023-05-01T05:21:26.434Z,35.17
2023-05-01T05:23:56.129Z,38.83
2023-05-01T05:26:26.754Z,41.00
2023-05-01T05:28:59.287Z,34.30
2023-05-01T05:31:26.993Z,40.25
2023-05-01T05:33:53.990Z,37.25
2023-05-01T05:36:21.808Z,40.13
2023-05-01T05:38:49.490Z,36.65
2023-05-01T05:41:18.772Z,43.03
2023-05-01T05:43:47.090Z,36.00
2023-05-01T05:46:14.266Z,41.25
2023-05-01T05:48:42.427Z,39.30
2023-05-01T05:51:10.217Z,38.42
2023-05-01T05:53:37.342Z,34.90
2023-05-01T05:56:04.911Z,39.92
2023-05-01T05:58:32.875Z,35.38
2023-05-01T06:00:59.948Z,32.70
2023-05-01T06:03:27.488Z,41.03
2023-05-01T06:05:59.964Z,37.08
2023-05-01T06:08:46.333Z,36.00
2023-05-01T06:11:14.055Z,32.20
2023-05-01T06:13:41.839Z,33.30
2023-05-01T06:16:09.775Z,39.63
2023-05-01T06:18:36.927Z,34.47
2023-05-01T06:21:04.272Z,35.45
2023-05-01T06:23:34.001Z,35.08
2023-05-01T06:26:24.351Z,34.13
2023-05-01T06:28:52.464Z,29.13
2023-05-01T06:31:21.199Z,32.25
2023-05-01T06:33:52.603Z,31.60
2023-05-01T06:36:26.731Z,32.20
2023-05-01T06:38:53.959Z,32.92
2023-05-01T06:41:22.114Z,33.60
2023-05-01T06:43:49.337Z,31.10
2023-05-01T06:46:17.501Z,32.45
2023-05-01T06:48:44.657Z,32.53
2023-05-01T06:51:17.701Z,28.85
2023-05-01T06:53:46.697Z,37.83
2023-05-01T06:56:14.096Z,28.67
2023-05-01T06:58:41.522Z,31.50
2023-05-01T07:01:08.784Z,33.15
2023-05-01T07:03:36.153Z,25.85
2023-05-01T07:06:06.159Z,25.25
2023-05-01T07:08:33.408Z,27.33
2023-05-01T07:11:00.371Z,25.70
2023-05-01T07:13:27.580Z,27.00
2023-05-01T07:15:55.305Z,26.45
2023-05-01T07:18:22.628Z,24.60
2023-05-01T07:20:50.518Z,21.13
2023-05-01T07:23:17.751Z,26.33
2023-05-01T07:25:46.028Z,21.45
2023-05-01T07:28:13.148Z,21.02
2023-05-01T07:30:40.848Z,25.13
2023-05-01T07:33:37.903Z,22.48
2023-05-01T07:36:08.270Z,21.10
2023-05-01T07:38:35.669Z,21.70
2023-05-01T07:41:02.822Z,20.98
2023-05-01T07:43:29.985Z,21.48
2023-05-01T07:46:00.560Z,19.95
2023-05-01T07:48:28.950Z,23.77
2023-05-01T07:50:59.694Z,17.42
2023-05-01T07:53:26.716Z,15.90
2023-05-01T07:55:53.645Z,20.10
2023-05-01T07:58:37.185Z,19.38
2023-05-01T08:01:06.261Z,13.63
2023-05-01T08:03:37.851Z,14.88
2023-05-01T08:06:06.388Z,19.27
2023-05-01T08:08:33.469Z,12.07
2023-05-01T08:11:00.730Z,12.27
2023-05-01T08:13:27.793Z,13.23
2023-05-01T08:15:55.201Z,11.75
2023-05-01T08:18:22.366Z,13.07
2023-05-01T08:20:52.335Z,13.55
2023-05-01T08:23:19.701Z,13.75
2023-05-01T08:25:47.184Z,10.95
2023-05-01T08:28:15.124Z,11.18
2023-05-01T08:30:42.579Z,9.20
2023-05-01T08:33:10.323Z,8.35
2023-05-01T08:35:37.562Z,14.30
2023-05-01T08:38:04.745Z,10.55
2023-05-01T08:40:37.150Z,12.00
2023-05-01T08:45:37.993Z,13.07
2023-05-01T08:48:18.769Z,11.18
2023-05-01T08:50:48.172Z,9.85
2023-05-01T08:53:24.137Z,16.92
2023-05-01T08:55:53.711Z,13.57
2023-05-01T08:58:24.408Z,10.77
2023-05-01T09:00:53.759Z,12.05
2023-05-01T09:03:22.172Z,13.93
2023-05-01T09:05:50.875Z,15.63
2023-05-01T09:08:18.139Z,14.45
2023-05-01T09:10:51.261Z,17.10
2023-05-01T09:13:19.245Z,12.65
2023-05-01T09:15:46.280Z,11.13
2023-05-01T09:18:13.713Z,12.10
2023-05-01T09:20:41.620Z,15.68
2023-05-01T09:23:09.088Z,14.80
2023-05-01T09:25:39.041Z,11.65
2023-05-01T09:28:07.672Z,13.98
2023-05-01T09:30:39.703Z,10.70
2023-05-01T09:33:15.425Z,9.75
2023-05-01T09:35:57.149Z,14.52
2023-05-01T09:38:27.061Z,10.60
2023-05-01T09:40:57.022Z,10.07
2023-05-01T09:43:30.387Z,11.15
2023-05-01T09:46:09.719Z,11.15
2023-05-01T09:48:38.502Z,11.70
2023-05-01T09:51:27.132Z,10.10
2023-05-01T09:54:00.480Z,12.32
2023-05-01T09:56:31.391Z,12.55
2023-05-01T09:59:16.466Z,17.90
2023-05-01T10:01:46.501Z,10.00
2023-05-01T10:04:20.889Z,13.35
2023-05-01T10:06:48.184Z,15.32
2023-05-01T10:09:29.164Z,12.40
2023-05-01T10:11:57.876Z,17.35
2023-05-01T10:14:26.994Z,12.55
2023-05-01T10:16:54.726Z,9.95
2023-05-01T10:19:23.439Z,10.80
2023-05-01T10:21:50.662Z,11.98
2023-05-01T10:24:18.015Z,11.85
2023-05-01T10:26:48.674Z,13.35
2023-05-01T10:29:15.983Z,12.75
2023-05-01T10:31:43.074Z,11.43
2023-05-01T10:34:16.791Z,13.00
2023-05-01T10:36:54.837Z,10.13
2023-05-01T10:39:38.621Z,13.05
2023-05-01T10:42:17.825Z,9.48
2023-05-01T10:44:47.838Z,9.65
2023-05-01T10:47:34.649Z,9.35
2023-05-01T10:50:15.833Z,10.43
2023-05-01T10:53:12.295Z,8.38
2023-05-01T10:55:50.099Z,9.50
2023-05-01T10:58:39.095Z,9.27
2023-05-01T11:01:28.201Z,7.75
2023-05-01T11:03:57.525Z,9.35
2023-05-01T11:06:25.263Z,7.75
2023-05-01T11:08:57.903Z,9.93
2023-05-01T11:11:25.244Z,10.05
2023-05-01T11:14:06.709Z,7.78
2023-05-01T11:16:43.335Z,10.15
2023-05-01T11:19:50.495Z,9.88
2023-05-01T11:23:06.358Z,9.18
2023-05-01T11:25:33.905Z,7.35
2023-05-01T11:28:04.146Z,7.70
2023-05-01T11:30:41.461Z,9.60
2023-05-01T11:33:14.374Z,6.72
2023-05-01T11:35:42.010Z,10.13
2023-05-01T11:38:18.884Z,8.60
2023-05-01T11:40:55.043Z,7.88
2023-05-01T11:43:23.179Z,7.75
2023-05-01T11:46:02.310Z,9.55
2023-05-01T11:48:30.386Z,6.85
2023-05-01T11:50:57.737Z,9.23
2023-05-01T11:53:25.332Z,10.38
2023-05-01T11:55:52.393Z,7.50
2023-05-01T11:58:32.985Z,8.23
2023-05-01T12:01:00.242Z,8.75
2023-05-01T12:03:29.790Z,14.27
2023-05-01T12:05:57.193Z,9.20
2023-05-01T12:08:27.123Z,7.13
2023-05-01T12:10:56.383Z,6.28
2023-05-01T12:13:24.450Z,7.10
2023-05-01T12:15:54.368Z,8.75
2023-05-01T12:18:22.518Z,11.55
2023-05-01T12:20:52.417Z,5.82
2023-05-01T12:23:31.579Z,8.32
2023-05-01T12:26:05.974Z,7.55
2023-05-01T12:31:05.514Z,6.88
2023-05-01T12:33:33.310Z,8.65
2023-05-01T12:36:13.137Z,6.22
2023-05-01T12:38:40.791Z,7.00
2023-05-01T12:41:09.720Z,5.97
2023-05-01T12:43:41.455Z,8.52
2023-05-01T12:46:15.911Z,9.60
2023-05-01T12:48:43.193Z,6.95
2023-05-01T12:51:21.103Z,5.65
2023-05-01T12:53:49.495Z,6.45
2023-05-01T12:56:24.952Z,6.78
2023-05-01T12:58:53.861Z,4.55
2023-05-01T13:01:28.776Z,5.50
2023-05-01T13:03:58.023Z,6.30
2023-05-01T13:06:36.520Z,5.03
2023-05-01T13:09:10.321Z,7.55
2023-05-01T13:11:38.377Z,5.35
2023-05-01T13:14:09.714Z,4.88
2023-05-01T13:16:54.458Z,6.05
2023-05-01T13:19:36.754Z,5.07
2023-05-01T13:22:07.531Z,9.48
2023-05-01T13:24:40.496Z,4.50
2023-05-01T13:27:12.823Z,4.43
2023-05-01T13:29:46.247Z,5.55
2023-05-01T13:32:13.965Z,6.95
2023-05-01T13:34:43.008Z,5.55
2023-05-01T13:37:14.492Z,6.05
2023-05-01T13:39:47.448Z,5.78
2023-05-01T13:42:27.539Z,5.10
2023-05-01T13:44:57.314Z,4.85
2023-05-01T13:47:27.775Z,5.60
2023-05-01T13:49:55.705Z,6.72
2023-05-01T13:52:23.101Z,5.07
2023-05-01T13:54:55.815Z,6.13
2023-05-01T13:57:23.535Z,3.97
2023-05-01T13:59:50.515Z,7.50
2023-05-01T14:02:28.007Z,3.65
2023-05-01T14:04:56.533Z,5.50
2023-05-01T14:07:28.652Z,5.18
2023-05-01T14:09:59.961Z,8.10
2023-05-01T14:12:34.669Z,5.13
2023-05-01T14:15:03.434Z,6.53
2023-05-01T14:17:35.721Z,5.97
2023-05-01T14:20:06.776Z,4.15
2023-05-01T14:22:54.669Z,7.50
2023-05-01T14:25:34.906Z,4.70
2023-05-01T14:28:08.003Z,3.88
2023-05-01T14:30:38.793Z,5.68
2023-05-01T14:33:13.776Z,4.32
2023-05-01T14:35:50.580Z,3.97
2023-05-01T14:38:22.077Z,3.40
2023-05-01T14:40:49.356Z,6.60
2023-05-01T14:43:23.498Z,5.95
2023-05-01T14:45:50.775Z,5.18
2023-05-01T14:48:25.490Z,5.93
2023-05-01T14:50:54.754Z,5.28
2023-05-01T14:53:23.191Z,7.60
2023-05-01T14:55:52.119Z,10.10
2023-05-01T14:58:19.115Z,5.72
2023-05-01T15:00:46.607Z,7.63
2023-05-01T15:03:14.056Z,3.70
2023-05-01T15:05:41.889Z,7.20
2023-05-01T15:08:11.865Z,6.18
2023-05-01T15:10:39.220Z,7.35
2023-05-01T15:13:06.826Z,4.85
2023-05-01T15:15:33.893Z,7.80
2023-05-01T15:18:01.909Z,6.00
2023-05-01T15:20:29.013Z,5.72
2023-05-01T15:22:56.073Z,5.55
2023-05-01T15:25:23.098Z,9.05
2023-05-01T15:27:50.416Z,10.20
2023-05-01T15:30:18.028Z,6.55
2023-05-01T15:32:45.365Z,7.00
2023-05-01T15:35:12.952Z,6.78
2023-05-01T15:37:40.419Z,6.13
2023-05-01T15:40:08.899Z,8.25
2023-05-01T15:42:36.180Z,5.55
2023-05-01T15:45:03.663Z,4.90
2023-05-01T15:47:31.885Z,6.35
2023-05-01T15:50:00.594Z,9.32
2023-05-01T15:52:27.975Z,7.68
2023-05-01T15:54:56.403Z,10.27
2023-05-01T15:57:25.549Z,10.20
2023-05-01T15:59:56.013Z,9.05
2023-05-01T16:02:23.678Z,13.65
2023-05-01T16:04:54.480Z,6.88
2023-05-01T16:07:21.723Z,7.80
2023-05-01T16:09:49.265Z,4.90
2023-05-01T16:12:16.534Z,6.82
2023-05-01T16:14:43.989Z,7.10
2023-05-01T16:17:11.451Z,8.55
2023-05-01T16:19:39.347Z,9.93
2023-05-01T16:22:07.165Z,9.98
2023-05-01T16:24:36.531Z,7.05
2023-05-01T16:27:04.500Z,7.70
2023-05-01T16:29:35.673Z,9.40
2023-05-01T16:32:06.284Z,7.68
2023-05-01T16:34:33.614Z,7.35
2023-05-01T16:37:00.707Z,10.63
2023-05-01T16:39:27.786Z,16.63
2023-05-01T16:41:55.299Z,9.55
2023-05-01T16:44:23.411Z,8.95
2023-05-01T16:46:55.795Z,5.70
2023-05-01T16:49:27.289Z,9.05
2023-05-01T16:51:57.149Z,8.45
2023-05-01T16:54:35.509Z,8.18
2023-05-01T16:57:03.543Z,8.05
2023-05-01T16:59:31.576Z,10.13
2023-05-01T17:01:58.678Z,9.15
2023-05-01T17:04:26.940Z,6.63
2023-05-01T17:06:56.131Z,9.65
2023-05-01T17:09:24.212Z,9.45
2023-05-01T17:11:57.015Z,11.00
2023-05-01T17:14:24.825Z,8.57
2023-05-01T17:16:53.352Z,7.13
2023-05-01T17:19:20.787Z,9.30
2023-05-01T17:21:47.912Z,7.57
2023-05-01T17:24:15.052Z,13.25
2023-05-01T17:26:42.254Z,7.47
2023-05-01T17:29:09.516Z,10.88
2023-05-01T17:31:37.781Z,11.00
2023-05-01T17:34:05.269Z,9.30
2023-05-01T17:36:32.452Z,17.05
2023-05-01T17:39:04.178Z,11.70
2023-05-01T17:41:31.399Z,11.18
2023-05-01T17:43:59.555Z,12.80
2023-05-01T17:46:50.306Z,10.35
2023-05-01T17:50:20.370Z,11.50
2023-05-01T17:52:47.848Z,11.52
2023-05-01T17:55:18.573Z,9.48
2023-05-01T17:57:49.633Z,8.30
2023-05-01T18:00:17.293Z,9.18
2023-05-01T18:02:47.662Z,8.63
2023-05-01T18:05:15.667Z,9.80
2023-05-01T18:07:42.785Z,8.38
2023-05-01T18:10:11.196Z,11.73
2023-05-01T18:12:38.428Z,14.45
2023-05-01T18:15:06.190Z,13.75
2023-05-01T18:17:36.251Z,21.73
2023-05-01T18:20:04.050Z,13.40
2023-05-01T18:22:34.568Z,11.65
2023-05-01T18:25:02.900Z,17.58
2023-05-01T18:27:30.016Z,10.75
2023-05-01T18:29:57.403Z,13.70
2023-05-01T18:32:32.892Z,11.00
2023-05-01T18:35:08.423Z,11.32
2023-05-01T18:38:28.654Z,14.35
2023-05-01T18:41:21.752Z,15.23
2023-05-01T18:44:41.049Z,16.92
2023-05-01T18:47:47.436Z,14.23
2023-05-01T18:50:57.297Z,12.52
2023-05-01T18:53:34.198Z,13.90
2023-05-01T18:56:02.418Z,12.75
2023-05-01T18:58:30.257Z,13.68
2023-05-01T19:00:57.693Z,14.38
2023-05-01T19:03:25.186Z,9.48
2023-05-01T19:05:52.450Z,11.70
2023-05-01T19:08:19.863Z,14.15
2023-05-01T19:10:46.968Z,11.68
2023-05-01T19:13:14.224Z,10.80
2023-05-01T19:15:41.839Z,21.08
2023-05-01T19:18:09.454Z,18.27
2023-05-01T19:20:36.838Z,16.38
2023-05-01T19:23:04.668Z,17.88
2023-05-01T19:25:32.447Z,16.98
2023-05-01T19:28:02.050Z,11.40
2023-05-01T19:30:29.965Z,16.55
2023-05-01T19:32:58.309Z,15.82
2023-05-01T19:35:25.438Z,13.35
2023-05-01T19:37:59.536Z,12.57
2023-05-01T19:40:26.747Z,14.80
2023-05-01T19:42:53.740Z,10.00
2023-05-01T19:45:21.236Z,12.40
2023-05-01T19:47:49.192Z,11.43
2023-05-01T19:50:19.296Z,13.43
2023-05-01T19:52:46.508Z,15.73
2023-05-01T19:55:14.962Z,12.80
2023-05-01T19:57:43.959Z,9.57
2023-05-01T20:00:12.347Z,12.93
2023-05-01T20:02:41.552Z,13.75
2023-05-01T20:05:09.693Z,13.43
2023-05-01T20:07:37.287Z,10.90
2023-05-01T20:10:05.205Z,13.25
2023-05-01T20:12:32.936Z,12.32
2023-05-01T20:15:01.641Z,14.43
2023-05-01T20:17:29.469Z,13.77
2023-05-01T20:19:57.029Z,12.50
2023-05-01T20:22:24.131Z,14.52
2023-05-01T20:24:51.238Z,11.98
2023-05-01T20:27:18.317Z,11.02
2023-05-01T20:29:46.533Z,13.45
2023-05-01T20:32:13.656Z,14.38
2023-05-01T20:34:40.687Z,12.88
2023-05-01T20:37:07.843Z,12.27
2023-05-01T20:39:34.970Z,11.85
2023-05-01T20:42:02.036Z,13.38
2023-05-01T20:44:29.557Z,11.35
2023-05-01T20:46:56.717Z,12.07
2023-05-01T20:49:24.114Z,11.68
2023-05-01T20:51:52.372Z,14.73
2023-05-01T20:54:19.418Z,13.15
2023-05-01T20:56:46.407Z,19.33
2023-05-01T20:59:13.731Z,11.98
2023-05-01T21:01:40.942Z,15.13
2023-05-01T21:04:08.209Z,13.63
2023-05-01T21:06:35.494Z,14.80
2023-05-01T21:09:04.811Z,14.02
2023-05-01T21:11:31.888Z,14.00
2023-05-01T21:13:59.014Z,15.48
2023-05-01T21:16:28.118Z,15.80
2023-05-01T21:18:55.322Z,15.02
2023-05-01T21:21:22.566Z,12.90
2023-05-01T21:23:50.909Z,12.57
2023-05-01T21:26:19.770Z,20.73
2023-05-01T21:28:46.886Z,15.35
2023-05-01T21:31:15.488Z,14.02
2023-05-01T21:33:45.862Z,13.43
2023-05-01T21:36:18.438Z,16.63
2023-05-01T21:38:53.618Z,13.45
2023-05-01T21:42:05.148Z,11.88
2023-05-01T21:44:32.300Z,12.48
2023-05-01T21:47:01.912Z,12.85
2023-05-01T21:49:42.855Z,14.48
2023-05-01T21:52:11.355Z,12.93
2023-05-01T21:54:39.783Z,13.63
2023-05-01T21:57:08.002Z,13.38
2023-05-01T21:59:39.119Z,14.32
2023-05-01T22:02:12.097Z,15.95
2023-05-01T22:04:39.778Z,13.05
2023-05-01T22:07:06.841Z,15.80
2023-05-01T22:09:34.184Z,13.25
2023-05-01T22:12:01.526Z,12.55
2023-05-01T22:15:19.915Z,14.70
2023-05-01T22:18:05.367Z,16.25
2023-05-01T22:20:32.581Z,14.88
2023-05-01T22:22:59.604Z,15.15
2023-05-01T22:25:26.665Z,13.80
2023-05-01T22:27:53.836Z,13.52
2023-05-01T22:30:20.866Z,14.35
2023-05-01T22:32:48.592Z,14.25
2023-05-01T22:35:16.341Z,13.27
2023-05-01T22:37:43.386Z,13.77
2023-05-01T22:40:11.053Z,10.77
2023-05-01T22:42:38.302Z,13.75
2023-05-01T22:45:07.122Z,12.85
2023-05-01T22:47:34.369Z,12.88
2023-05-01T22:50:02.215Z,13.98
2023-05-01T22:52:29.740Z,17.05
2023-05-01T22:54:57.457Z,15.30
2023-05-01T22:57:46.216Z,14.00
2023-05-01T23:00:26.441Z,14.52
2023-05-01T23:02:54.141Z,13.48
2023-05-01T23:05:22.065Z,16.75
2023-05-01T23:07:52.141Z,12.85
2023-05-01T23:10:27.945Z,15.90
2023-05-01T23:13:05.635Z,16.08
2023-05-01T23:15:47.222Z,14.35
2023-05-01T23:18:19.350Z,15.82
2023-05-01T23:20:46.533Z,11.38
2023-05-01T23:23:14.976Z,15.25
2023-05-01T23:25:49.292Z,16.85
2023-05-01T23:28:26.173Z,17.60
2023-05-01T23:31:03.128Z,14.70
2023-05-01T23:33:39.337Z,15.48
2023-05-01T23:36:12.422Z,14.05
2023-05-01T23:38:40.473Z,12.20
2023-05-01T23:41:08.329Z,15.70
2023-05-01T23:43:36.209Z,15.63
2023-05-01T23:46:04.597Z,12.90
2023-05-01T23:48:34.687Z,13.30
2023-05-01T23:51:02.743Z,15.35
2023-05-01T23:53:30.154Z,11.73
2023-05-01T23:55:57.248Z,17.65
2023-05-01T23:58:24.499Z,14.75
